• Join FlightAware (Why Join?)
  • Login
  • US Flag 
12:40AM EST


 

Airport Tracker/Info


-or-


 

Live Flight TrackerFlight Track Log ✈ VH-MUW ✈ 06-May-2013 ✈ YSCB / CBR - YCWR / CWT

Flight Track Log - Related Links

Times and Time Zones

All times are in EDT time to prevent confusion due to time zone crossing. See the VH-MUW flight status page for this flight to view local times or setup timezone preferences in your user account.

Time Position Orientation Groundspeed Altitude Reporting Facility
EDT Latitude Longitude Course Direction KTS MPH feet Rate Location/Type
06:57PM -35.2983 149.1826 314° West 72 83 2,300  Level Aus ATC (RADAR)
06:58PM -35.2918 149.1745 314° West 76 87 2,600 660 Climbing Aus ATC (RADAR)
06:58PM -35.2809 149.1632 320° Northwest 86 99 3,000 720 Climbing Aus ATC (RADAR)
06:59PM -35.2664 149.1490 321° Northwest 84 97 3,600 720 Climbing Aus ATC (RADAR)
07:00PM -35.2573 149.1400 321° Northwest 83 96 4,000 720 Climbing Aus ATC (RADAR)
07:00PM -35.2443 149.1236 314° West 80 92 4,600 600 Climbing Aus ATC (RADAR)
07:01PM -35.2368 149.1174 326° Northwest 78 90 4,800 660 Climbing Aus ATC (RADAR)
07:02PM -35.2171 149.1044 332° Northwest 70 81 5,600 660 Climbing Aus ATC (RADAR)
07:02PM -35.2067 149.1002 342° North 78 90 5,900 540 Climbing Aus ATC (RADAR)
07:03PM -35.1990 149.0972 342° North 70 81 6,100 600 Climbing Aus ATC (RADAR)
07:03PM -35.1878 149.0891 330° Northwest 74 85 6,500 300 Climbing Aus ATC (RADAR)
07:04PM -35.1689 149.0768 332° Northwest 94 108 6,600 60 Climbing Aus ATC (RADAR)
07:05PM -35.1552 149.0666 329° Northwest 100 115 6,600  Level Aus ATC (RADAR)
07:06PM -35.1362 149.0556 335° Northwest 99 114 6,600  Level Aus ATC (RADAR)
07:06PM -35.1254 149.0486 332° Northwest 103 119 6,600  Level Aus ATC (RADAR)
07:07PM -35.1004 149.0362 338° Northwest 94 108 6,600  Level Aus ATC (RADAR)
07:07PM -35.0909 149.0309 335° Northwest 91 105 6,600  Level Aus ATC (RADAR)
07:08PM -35.0812 149.0251 334° Northwest 93 107 6,600  Level Aus ATC (RADAR)
07:08PM -35.0650 149.0174 339° North 92 106 6,600  Level Aus ATC (RADAR)
07:09PM -35.0453 149.0111 345° North 97 112 6,600 60 Level Aus ATC (RADAR)
07:10PM -35.0304 149.0065 346° North 98 113 6,700  Climbing Aus ATC (RADAR)
07:11PM -35.0075 148.9972 342° North 105 121 6,600 -120 Descending Aus ATC (RADAR)
07:11PM -34.9964 148.9915 337° Northwest 104 120 6,600  Level Aus ATC (RADAR)
07:12PM -34.9702 148.9773 336° Northwest 100 115 6,600  Level Aus ATC (RADAR)
07:12PM -34.9594 148.9715 336° Northwest 100 115 6,600  Level Aus ATC (RADAR)
07:13PM -34.9482 148.9654 336° Northwest 104 120 6,600  Level Aus ATC (RADAR)
07:17PM -34.8500 148.9167 360° North -1,680 Descending Aus ATC (Calculated)
07:19PM -34.8063 148.9167 North  Level FlightAware Approximate
07:20PM -34.8322 148.9167 180° South  Level FlightAware Approximate
07:21PM -34.8582 148.9167 180° South  Level FlightAware Approximate
07:22PM -34.8344 148.9125 348° North  Level FlightAware Approximate
07:23PM -34.8091 148.9057 348° North  Level FlightAware Approximate
07:24PM -34.7837 148.8988 348° North  Level FlightAware Approximate
07:25PM -34.7583 148.8920 348° North  Level FlightAware Approximate
07:26PM -34.7330 148.8852 348° North  Level FlightAware Approximate
07:27PM -34.7076 148.8784 348° North  Level FlightAware Approximate
07:28PM -34.6823 148.8716 348° North  Level FlightAware Approximate
07:29PM -34.6569 148.8648 348° North  Level FlightAware Approximate
07:30PM -34.6315 148.8580 348° North  Level FlightAware Approximate
07:31PM -34.6062 148.8512 348° North  Level FlightAware Approximate
07:32PM -34.5808 148.8444 348° North  Level FlightAware Approximate
07:33PM -34.5554 148.8376 348° North  Level FlightAware Approximate
07:34PM -34.5301 148.8308 348° North  Level FlightAware Approximate
07:35PM -34.5047 148.8240 348° North  Level FlightAware Approximate
07:36PM -34.4793 148.8172 348° North  Level FlightAware Approximate
07:37PM -34.4539 148.8104 348° North  Level FlightAware Approximate
07:38PM -34.4286 148.8037 348° North  Level FlightAware Approximate
07:39PM -34.4032 148.7969 348° North  Level FlightAware Approximate
07:40PM -34.3778 148.7901 348° North  Level FlightAware Approximate
07:41PM -34.3525 148.7834 348° North  Level FlightAware Approximate
07:42PM -34.3271 148.7766 348° North  Level FlightAware Approximate
07:42PM -34.2218 148.7486 168° South  Level Aus ATC (Calculated)
07:43PM -34.3017 148.7699 348° North  Level FlightAware Approximate
07:44PM -34.1808 148.7378 348° North  Level FlightAware Approximate
07:45PM -34.1555 148.7310 348° North  Level FlightAware Approximate
07:46PM -34.1301 148.7243 348° North  Level FlightAware Approximate
07:47PM -34.1047 148.7176 348° North  Level FlightAware Approximate
07:48PM -34.0793 148.7109 348° North  Level FlightAware Approximate
07:49PM -34.0540 148.7042 348° North  Level FlightAware Approximate
07:50PM -34.0286 148.6975 348° North  Level FlightAware Approximate
07:51PM -34.0032 148.6908 348° North  Level FlightAware Approximate
07:52PM -33.9779 148.6841 348° North  Level FlightAware Approximate
07:53PM -33.9525 148.6774 348° North  Level FlightAware Approximate
07:54PM -33.9271 148.6707 348° North  Level FlightAware Approximate
07:55PM -33.9017 148.6640 348° North  Level FlightAware Approximate
07:56PM -33.8764 148.6573 348° North  Level FlightAware Approximate
07:57PM -33.8510 148.6506 348° North  Level FlightAware Approximate
07:58PM -33.8447 148.6489 348° North  Level Estimated
07:59PM -33.8447 148.6489 131° Southeast  Level Estimated
08:00PM -33.8447 148.6489 131° Southeast  Level Estimated
08:01PM -33.8447 148.6489 348° North  Level Estimated
08:02PM -33.8447 148.6489 348° North  Level Estimated
08:03PM -33.8447 148.6489 348° North  Level Estimated